Time;durP1;ratioP1;P1;durP2;ratioP2;P2;SDS_P1;SDS_P2;PMS_P1;PMS_P2;Temp;Humidity;BMP_temperature;BMP_pressure;BME280_temperature;BME280_humidity;BME280_pressure;Samples;Min_cycle;Max_cycle;Signal;HPM_P1;HPM_P2
2021/08/23 00:00:12;;;;;;;9.88;4.38;;;;;;;17.36;79.67;101589.22;5006674;28;20039;-74
2021/08/23 00:02:38;;;;;;;11.68;3.75;;;;;;;17.38;79.53;101581.97;4993433;28;20073;-74
2021/08/23 00:05:04;;;;;;;6.85;3.60;;;;;;;17.32;79.91;101589.56;4992843;28;20609;-73
2021/08/23 00:07:30;;;;;;;6.00;3.25;;;;;;;17.32;80.31;101597.41;4989561;28;20507;-74
2021/08/23 00:09:55;;;;;;;8.88;4.03;;;;;;;17.32;79.97;101600.03;5003922;28;20037;-73
2021/08/23 00:12:21;;;;;;;6.43;3.95;;;;;;;17.32;80.22;101586.94;5002960;28;20113;-73
2021/08/23 00:14:47;;;;;;;6.45;3.90;;;;;;;17.33;79.85;101587.78;5009391;28;20081;-73
2021/08/23 00:17:12;;;;;;;9.90;4.63;;;;;;;17.34;80.12;101592.00;4993876;28;20062;-73
2021/08/23 00:19:38;;;;;;;8.98;4.95;;;;;;;17.28;80.58;101587.50;5010705;28;20430;-73
2021/08/23 00:22:21;;;;;;;5.88;3.83;;;;;;;17.27;80.68;101584.06;4996121;28;20064;-73
2021/08/23 00:24:48;;;;;;;9.57;4.45;;;;;;;17.28;80.59;101595.34;4989209;28;20393;-73
2021/08/23 00:27:14;;;;;;;8.25;5.47;;;;;;;17.28;80.80;101585.69;4991732;28;20040;-74
2021/08/23 00:29:39;;;;;;;10.00;5.53;;;;;;;17.28;80.90;101583.06;4989522;28;20476;-73
2021/08/23 00:32:05;;;;;;;9.45;5.43;;;;;;;17.27;80.85;101585.84;5002199;28;20037;-73
2021/08/23 00:34:31;;;;;;;10.40;5.50;;;;;;;17.26;80.87;101586.88;5004843;28;20023;-75
2021/08/23 00:36:56;;;;;;;8.07;4.95;;;;;;;17.24;81.28;101596.72;4987492;28;20096;-73
2021/08/23 00:39:22;;;;;;;7.43;4.80;;;;;;;17.23;81.34;101595.88;5007159;28;20030;-73
2021/08/23 00:41:47;;;;;;;7.68;5.38;;;;;;;17.25;81.19;101601.78;5001460;28;20113;-73
2021/08/23 00:44:13;;;;;;;8.10;5.65;;;;;;;17.28;81.09;101598.78;5006864;28;20049;-73
2021/08/23 00:46:38;;;;;;;10.50;6.80;;;;;;;17.27;80.98;101596.34;4990135;28;20033;-73
2021/08/23 00:49:04;;;;;;;8.88;6.30;;;;;;;17.25;81.08;101599.16;4993198;28;20030;-73
2021/08/23 00:51:30;;;;;;;8.65;5.75;;;;;;;17.26;81.07;101600.78;5005369;28;20026;-73
2021/08/23 00:53:56;;;;;;;7.13;5.28;;;;;;;17.26;81.11;101594.72;4993455;28;20038;-73
2021/08/23 00:56:22;;;;;;;10.00;5.70;;;;;;;17.28;81.33;101597.97;4990509;28;20046;-74
2021/08/23 00:58:49;;;;;;;9.27;4.97;;;;;;;17.27;81.75;101602.41;4985798;28;20034;-74
2021/08/23 01:01:20;;;;;;;7.40;4.75;;;;;;;17.27;81.93;101598.97;5000902;28;20093;-74
2021/08/23 01:03:56;;;;;;;9.13;5.22;;;;;;;17.28;81.95;101605.84;5002542;28;20441;-73
2021/08/23 01:06:24;;;;;;;8.13;5.47;;;;;;;17.28;81.55;101595.34;5002291;28;20045;-74
2021/08/23 01:08:57;;;;;;;7.78;5.15;;;;;;;17.30;81.77;101594.19;5006940;28;20033;-74
2021/08/23 01:11:23;;;;;;;;;;;;;;;17.30;82.05;101604.66;4987339;28;20030;-74
2021/08/23 01:13:50;;;;;;;8.63;4.90;;;;;;;17.29;82.23;101597.81;5010050;28;19917;-74
2021/08/23 01:16:16;;;;;;;8.38;4.93;;;;;;;17.29;82.26;101608.28;5002954;28;20117;-73
2021/08/23 01:18:45;;;;;;;8.07;5.25;;;;;;;17.29;82.29;101610.06;5007482;28;20030;-74
2021/08/23 01:21:14;;;;;;;10.15;5.80;;;;;;;17.30;82.50;101611.72;4986483;28;20145;-74
2021/08/23 01:23:44;;;;;;;9.55;4.65;;;;;;;17.31;82.37;101613.34;4986698;28;20034;-74
2021/08/23 01:26:13;;;;;;;7.75;4.35;;;;;;;17.34;82.14;101614.78;4988616;28;20039;-73
2021/08/23 01:29:03;;;;;;;8.18;4.65;;;;;;;17.33;82.31;101614.00;4988094;28;20049;-74
2021/08/23 01:31:34;;;;;;;9.00;4.93;;;;;;;17.30;82.57;101614.34;4989040;28;20038;-74
2021/08/23 01:34:01;;;;;;;9.60;5.60;;;;;;;17.30;82.58;101619.59;4986750;28;20101;-74
2021/08/23 01:36:26;;;;;;;13.48;8.82;;;;;;;17.28;83.13;101617.13;5008635;28;20026;-74
2021/08/23 01:38:52;;;;;;;11.13;7.18;;;;;;;17.21;83.34;101616.22;4986905;28;20121;-74
2021/08/23 01:41:18;;;;;;;7.95;6.07;;;;;;;17.13;83.97;101622.38;4987542;28;20058;-74
2021/08/23 01:43:43;;;;;;;9.13;5.80;;;;;;;17.13;84.20;101619.75;4989388;28;20037;-74
2021/08/23 01:46:09;;;;;;;10.48;6.15;;;;;;;17.15;83.92;101627.44;5011048;28;20762;-76
2021/08/23 01:48:34;;;;;;;9.27;5.63;;;;;;;17.16;83.86;101626.44;5000316;28;20046;-77
2021/08/23 01:51:01;;;;;;;12.40;7.40;;;;;;;17.16;84.06;101620.38;5002264;28;20058;-76
2021/08/23 01:53:26;;;;;;;12.95;8.55;;;;;;;17.13;84.28;101624.97;4985566;28;20563;-77
2021/08/23 01:55:52;;;;;;;18.50;12.68;;;;;;;17.12;84.49;101625.16;4985612;28;20035;-77
2021/08/23 01:58:19;;;;;;;25.40;18.52;;;;;;;17.08;84.56;101623.88;4987912;28;20108;-77
2021/08/23 02:00:45;;;;;;;27.60;20.42;;;;;;;17.10;84.60;101627.16;5002120;28;20526;-75
2021/08/23 02:03:10;;;;;;;22.30;14.90;;;;;;;17.05;84.72;101622.44;4985344;28;20042;-76
2021/08/23 02:05:37;;;;;;;22.38;16.35;;;;;;;17.00;85.00;101622.16;4987167;28;20966;-76
2021/08/23 02:08:02;;;;;;;17.65;11.65;;;;;;;17.07;84.92;101617.03;5004554;28;20045;-75
2021/08/23 02:10:28;;;;;;;17.98;11.05;;;;;;;17.10;84.88;101633.22;5010718;28;20034;-75
2021/08/23 02:12:55;;;;;;;16.35;10.82;;;;;;;17.09;84.50;101628.16;5003762;28;20038;-75
2021/08/23 02:15:21;;;;;;;17.05;11.45;;;;;;;16.98;85.38;101637.25;5007097;28;20109;-76
2021/08/23 02:17:46;;;;;;;15.13;10.25;;;;;;;16.89;85.69;101639.13;4994491;28;20046;-76
2021/08/23 02:20:13;;;;;;;13.35;9.68;;;;;;;16.85;86.06;101643.09;5006862;28;20027;-76
2021/08/23 02:22:41;;;;;;;14.40;9.98;;;;;;;16.85;86.17;101640.47;4989900;28;20030;-76
2021/08/23 02:25:08;;;;;;;17.92;12.27;;;;;;;16.88;86.14;101647.97;4993260;28;20484;-76
2021/08/23 02:27:33;;;;;;;17.05;12.27;;;;;;;16.94;86.07;101641.22;4990988;28;20042;-76
2021/08/23 02:29:59;;;;;;;17.48;10.20;;;;;;;16.86;86.28;101643.94;5010479;28;20068;-78
2021/08/23 02:32:25;;;;;;;16.90;12.00;;;;;;;16.84;86.52;101645.88;5007446;28;20562;-78
2021/08/23 02:34:51;;;;;;;19.27;13.18;;;;;;;16.83;86.56;101652.13;4990411;28;20124;-78
2021/08/23 02:37:17;;;;;;;21.05;14.68;;;;;;;16.83;86.58;101654.75;4990572;28;20042;-77
2021/08/23 02:39:42;;;;;;;16.20;11.57;;;;;;;16.81;86.68;101661.94;4993758;28;20092;-75
2021/08/23 02:42:07;;;;;;;26.13;17.90;;;;;;;16.81;86.41;101662.75;4990907;28;20042;-75
2021/08/23 02:44:33;;;;;;;21.05;14.38;;;;;;;16.81;86.50;101673.22;5006144;28;20535;-75
2021/08/23 02:46:59;;;;;;;19.27;13.43;;;;;;;16.78;86.45;101676.19;5005960;28;20507;-75
2021/08/23 02:49:26;;;;;;;16.02;11.63;;;;;;;16.79;86.61;101683.06;4992029;28;20038;-75
2021/08/23 02:51:52;;;;;;;13.02;9.32;;;;;;;16.82;86.54;101684.50;4994768;28;20448;-75
2021/08/23 02:54:18;;;;;;;15.00;10.57;;;;;;;16.86;86.46;101685.84;4988282;28;20081;-75
2021/08/23 02:56:43;;;;;;;14.25;9.50;;;;;;;16.87;86.07;101680.38;4994010;28;20042;-74
2021/08/23 02:59:09;;;;;;;13.93;9.50;;;;;;;16.88;85.87;101676.78;5006439;28;20040;-77
2021/08/23 03:01:34;;;;;;;10.98;7.95;;;;;;;16.87;86.01;101684.81;5006551;28;20030;-78
2021/08/23 03:04:00;;;;;;;13.18;8.80;;;;;;;16.86;85.92;101685.84;5007553;28;20044;-77
2021/08/23 03:06:25;;;;;;;13.02;9.57;;;;;;;16.86;86.09;101683.22;5006616;28;20042;-77
2021/08/23 03:08:51;;;;;;;13.05;9.25;;;;;;;16.84;85.90;101691.25;4991417;28;20046;-76
2021/08/23 03:11:16;;;;;;;13.88;9.02;;;;;;;16.81;85.94;101696.78;5004943;28;20050;-75
2021/08/23 03:13:43;;;;;;;12.77;10.10;;;;;;;16.81;85.97;101695.97;5006902;28;20022;-75
2021/08/23 03:16:10;;;;;;;13.18;9.45;;;;;;;16.79;85.90;101696.16;4990943;28;20120;-75
2021/08/23 03:18:36;;;;;;;11.80;8.40;;;;;;;16.80;85.36;101689.94;5005144;28;20034;-76
2021/08/23 03:21:02;;;;;;;10.45;8.10;;;;;;;16.79;85.19;101696.16;5005300;28;20057;-75
2021/08/23 03:23:28;;;;;;;13.82;8.10;;;;;;;16.78;84.69;101698.94;5008762;28;20035;-75
2021/08/23 03:25:54;;;;;;;13.02;9.13;;;;;;;16.79;84.46;101706.63;4993963;28;20038;-75
2021/08/23 03:28:20;;;;;;;15.20;7.88;;;;;;;16.75;84.46;101702.72;5007017;28;20084;-75
2021/08/23 03:30:45;;;;;;;9.93;7.30;;;;;;;16.72;84.48;101705.69;5002738;28;20031;-75
2021/08/23 03:33:11;;;;;;;12.45;7.80;;;;;;;16.70;84.57;101711.09;5007925;28;20364;-75
2021/08/23 03:35:37;;;;;;;12.88;7.72;;;;;;;16.69;84.64;101711.28;5004149;28;20121;-76
2021/08/23 03:38:02;;;;;;;8.70;6.72;;;;;;;16.67;84.64;101713.25;4991258;28;20121;-76
2021/08/23 03:40:29;;;;;;;9.52;7.57;;;;;;;16.65;84.48;101720.47;4990419;28;20037;-76
2021/08/23 03:42:54;;;;;;;10.35;7.72;;;;;;;16.63;84.56;101725.06;4989374;28;20171;-75
2021/08/23 03:45:20;;;;;;;11.57;7.40;;;;;;;16.59;84.54;101721.16;5001933;28;20038;-76
2021/08/23 03:47:45;;;;;;;9.88;6.63;;;;;;;16.54;84.74;101717.28;5007388;28;20041;-75
2021/08/23 03:50:11;;;;;;;11.68;7.32;;;;;;;16.54;84.89;101724.31;4999058;28;20380;-75
2021/08/23 03:52:36;;;;;;;10.70;7.65;;;;;;;16.51;84.78;101722.84;5002823;28;20045;-75
2021/08/23 03:55:04;;;;;;;11.60;7.95;;;;;;;16.48;84.95;101727.59;4988763;28;20046;-76
2021/08/23 03:57:32;;;;;;;11.35;8.35;;;;;;;16.47;85.06;101729.41;5009155;28;20092;-76
2021/08/23 03:59:58;;;;;;;10.82;7.63;;;;;;;16.49;84.98;101727.44;5004942;28;20042;-75
2021/08/23 04:02:23;;;;;;;12.95;8.88;;;;;;;16.47;85.02;101739.06;4990668;28;20033;-75
2021/08/23 04:04:49;;;;;;;14.63;9.90;;;;;;;16.45;85.20;101739.25;5004170;28;20547;-75
2021/08/23 04:07:14;;;;;;;12.70;8.75;;;;;;;16.41;85.68;101747.63;4985745;28;20477;-76
2021/08/23 04:09:40;;;;;;;12.18;8.25;;;;;;;16.41;85.78;101748.44;4996176;28;20030;-76
2021/08/23 04:12:05;;;;;;;12.80;8.30;;;;;;;16.42;85.65;101744.81;4992556;28;20033;-75
2021/08/23 04:14:31;;;;;;;14.73;8.65;;;;;;;16.43;85.58;101741.22;5003823;28;20057;-75
2021/08/23 04:16:57;;;;;;;15.82;9.13;;;;;;;16.44;85.23;101744.63;4970864;28;20126;-77
2021/08/23 04:19:22;;;;;;;11.63;8.32;;;;;;;16.44;85.20;101749.88;4990314;28;20034;-77
2021/08/23 04:21:48;;;;;;;13.98;8.32;;;;;;;16.43;85.25;101749.06;4991834;28;20023;-77
2021/08/23 04:24:13;;;;;;;12.77;8.30;;;;;;;16.43;84.85;101745.66;5004909;28;20034;-77
2021/08/23 04:26:39;;;;;;;10.65;7.60;;;;;;;16.44;84.89;101760.34;4990690;28;20034;-78
2021/08/23 04:29:04;;;;;;;10.82;7.80;;;;;;;16.43;84.71;101762.16;5005875;28;20031;-78
2021/08/23 04:31:31;;;;;;;11.77;7.57;;;;;;;16.43;84.67;101766.59;5010607;28;20415;-77
2021/08/23 04:33:57;;;;;;;16.20;8.13;;;;;;;16.42;84.67;101773.59;5012544;28;20038;-77
2021/08/23 04:36:23;;;;;;;12.02;7.90;;;;;;;16.40;84.98;101777.38;4989541;28;20034;-77
2021/08/23 04:38:48;;;;;;;9.93;7.75;;;;;;;16.39;85.12;101787.03;4990024;28;20100;-77
2021/08/23 04:41:15;;;;;;;13.32;7.82;;;;;;;16.39;85.32;101786.22;5009470;28;20741;-78
2021/08/23 04:43:41;;;;;;;12.63;7.93;;;;;;;16.40;85.24;101786.03;4990154;28;20038;-78
2021/08/23 04:46:06;;;;;;;14.73;10.13;;;;;;;16.38;85.05;101785.41;4991745;28;20069;-77
2021/08/23 04:48:32;;;;;;;12.30;8.27;;;;;;;16.38;85.07;101785.41;5004355;28;20030;-77
2021/08/23 04:50:57;;;;;;;14.43;7.88;;;;;;;16.40;85.18;101790.47;5007029;28;20034;-77
2021/08/23 04:53:23;;;;;;;11.98;8.23;;;;;;;16.42;84.82;101796.34;4997393;28;20611;-77
2021/08/23 04:55:49;;;;;;;13.38;7.72;;;;;;;16.43;84.62;101801.41;5007606;28;20029;-77
2021/08/23 04:58:14;;;;;;;12.07;8.00;;;;;;;16.44;84.72;101799.59;5008560;28;20046;-77
2021/08/23 05:00:39;;;;;;;13.43;7.63;;;;;;;16.46;84.57;101808.09;5008508;28;20029;-77
2021/08/23 05:03:06;;;;;;;12.77;9.10;;;;;;;16.44;84.59;101802.22;4990217;28;20092;-77
2021/08/23 05:05:32;;;;;;;12.02;8.40;;;;;;;16.43;84.76;101814.50;5004599;28;20038;-78
2021/08/23 05:07:57;;;;;;;17.33;11.95;;;;;;;16.39;85.18;101810.59;4998852;28;20486;-77
2021/08/23 05:10:23;;;;;;;14.38;9.18;;;;;;;16.37;85.55;101815.19;5005201;28;20050;-77
2021/08/23 05:12:53;;;;;;;17.60;11.85;;;;;;;16.37;85.72;101811.75;4991387;28;20084;-77
2021/08/23 05:15:19;;;;;;;16.00;11.18;;;;;;;16.38;85.98;101816.00;5004072;28;20026;-77
2021/08/23 05:17:45;;;;;;;17.02;11.43;;;;;;;16.40;85.88;101814.84;5002923;28;20419;-77
2021/08/23 05:20:10;;;;;;;21.60;11.68;;;;;;;16.38;86.25;101818.63;5007141;28;20091;-77
2021/08/23 05:22:38;;;;;;;15.20;10.10;;;;;;;16.36;86.32;101810.94;4995142;28;20066;-77
2021/08/23 05:25:06;;;;;;;18.65;11.00;;;;;;;16.37;86.34;101812.56;5006250;28;20026;-75
2021/08/23 05:27:31;;;;;;;16.00;9.75;;;;;;;16.41;86.67;101818.28;4987876;28;20034;-75
2021/08/23 05:30:01;;;;;;;19.75;11.50;;;;;;;16.47;86.24;101814.97;4989285;28;20049;-75
2021/08/23 05:32:27;;;;;;;15.10;10.20;;;;;;;16.50;86.23;101817.25;4987816;28;20125;-76
2021/08/23 05:34:52;;;;;;;16.60;10.38;;;;;;;16.53;85.95;101822.16;5008997;28;20069;-75
2021/08/23 05:37:17;;;;;;;16.40;9.85;;;;;;;16.55;85.91;101814.94;4986559;28;20076;-77
2021/08/23 05:39:43;;;;;;;15.18;10.65;;;;;;;16.60;85.78;101824.91;4997068;28;20038;-77
2021/08/23 05:42:10;;;;;;;19.25;12.35;;;;;;;16.62;85.87;101831.59;4993603;28;20042;-77
2021/08/23 05:44:36;;;;;;;19.65;11.70;;;;;;;16.63;85.64;101835.03;4992845;28;20484;-77
2021/08/23 05:47:01;;;;;;;22.60;14.40;;;;;;;16.62;85.62;101839.44;5007730;28;20148;-77
2021/08/23 05:49:27;;;;;;;16.13;10.93;;;;;;;16.60;85.74;101835.38;5012998;28;20034;-77
2021/08/23 05:51:52;;;;;;;18.48;11.05;;;;;;;16.59;86.03;101838.97;5009272;28;20038;-77
2021/08/23 05:54:18;;;;;;;23.05;13.85;;;;;;;16.58;86.06;101843.41;5006900;28;20038;-78
2021/08/23 05:56:43;;;;;;;20.05;13.25;;;;;;;16.54;86.45;101845.53;4990563;28;20034;-77
2021/08/23 05:59:09;;;;;;;23.58;13.77;;;;;;;16.58;86.40;101850.44;5006831;28;20038;-77
2021/08/23 06:01:34;;;;;;;23.70;14.75;;;;;;;16.63;86.48;101854.19;5007650;28;20026;-74
2021/08/23 06:04:01;;;;;;;26.35;17.05;;;;;;;16.77;86.12;101847.41;5007854;28;20037;-74
2021/08/23 06:06:26;;;;;;;27.83;18.00;;;;;;;16.79;85.59;101849.84;5004654;28;20034;-74
2021/08/23 06:08:51;;;;;;;25.63;17.13;;;;;;;16.72;85.91;101853.13;5011046;28;20030;-75
2021/08/23 06:11:17;;;;;;;29.17;18.90;;;;;;;16.72;85.98;101858.38;4994023;28;20038;-75
2021/08/23 06:13:43;;;;;;;27.40;18.33;;;;;;;16.68;86.44;101859.72;5014979;28;20029;-75
2021/08/23 06:16:08;;;;;;;34.05;21.13;;;;;;;16.63;86.81;101866.44;4995296;28;20030;-75
2021/08/23 06:18:34;;;;;;;41.05;23.85;;;;;;;16.61;86.57;101871.84;4994599;28;20041;-74
2021/08/23 06:21:01;;;;;;;35.17;22.50;;;;;;;16.67;86.80;101871.19;5010316;28;20045;-75
2021/08/23 06:23:26;;;;;;;36.42;21.67;;;;;;;16.65;87.05;101864.47;5006934;28;20053;-74
2021/08/23 06:25:52;;;;;;;42.20;25.63;;;;;;;16.71;86.78;101867.25;4996544;28;20487;-74
2021/08/23 06:28:20;;;;;;;53.85;29.25;;;;;;;16.70;86.86;101862.97;5000818;28;20046;-76
2021/08/23 06:30:46;;;;;;;45.92;26.60;;;;;;;16.70;86.86;101878.69;4988840;28;20026;-77
2021/08/23 06:33:11;;;;;;;49.08;28.60;;;;;;;16.71;86.76;101876.91;5009217;28;20029;-77
2021/08/23 06:35:37;;;;;;;46.90;26.58;;;;;;;16.67;86.88;101865.94;5002583;28;20042;-76
2021/08/23 06:38:02;;;;;;;52.28;29.27;;;;;;;16.73;86.99;101869.69;5009821;28;20096;-76
2021/08/23 06:40:28;;;;;;;47.97;28.23;;;;;;;16.69;86.91;101866.59;5014127;28;20072;-77
2021/08/23 06:42:53;;;;;;;43.00;26.95;;;;;;;16.72;86.99;101871.47;4978905;28;20069;-76
2021/08/23 06:45:19;;;;;;;46.08;28.58;;;;;;;16.83;86.81;101883.41;4993535;28;20045;-76
2021/08/23 06:47:44;;;;;;;48.72;29.15;;;;;;;16.87;86.75;101883.88;4995827;28;20041;-76
2021/08/23 06:50:10;;;;;;;49.35;29.75;;;;;;;16.87;86.92;101886.50;4995419;28;20038;-74
2021/08/23 06:52:37;;;;;;;51.30;30.50;;;;;;;16.91;86.22;101890.41;5018667;28;20033;-74
2021/08/23 06:55:03;;;;;;;54.70;31.48;;;;;;;16.89;86.34;101887.16;5014841;28;20092;-74
2021/08/23 06:57:28;;;;;;;54.90;32.53;;;;;;;16.86;86.26;101893.56;5007628;28;20034;-73
2021/08/23 06:59:54;;;;;;;50.22;30.75;;;;;;;16.99;86.07;101900.88;4993836;28;20036;-74
2021/08/23 07:02:19;;;;;;;61.80;33.15;;;;;;;16.96;86.02;101898.59;4995478;28;20089;-74
2021/08/23 07:04:48;;;;;;;94.22;48.45;;;;;;;16.90;86.64;101900.09;4999270;28;20026;-74
2021/08/23 07:07:14;;;;;;;61.83;35.53;;;;;;;16.95;86.34;101904.00;4990841;28;20073;-73
2021/08/23 07:09:39;;;;;;;54.83;33.55;;;;;;;16.90;85.80;101907.13;4994838;28;20030;-75
2021/08/23 07:12:05;;;;;;;54.10;32.70;;;;;;;16.94;85.61;101911.03;4994639;28;20507;-75
2021/08/23 07:14:31;;;;;;;54.25;31.42;;;;;;;17.01;85.95;101921.63;5003775;28;20088;-75
2021/08/23 07:16:56;;;;;;;48.38;29.88;;;;;;;17.07;85.80;101920.97;4995315;28;20041;-76
2021/08/23 07:19:22;;;;;;;50.63;30.35;;;;;;;17.17;85.31;101908.44;5010222;28;20510;-75
2021/08/23 07:21:47;;;;;;;46.70;28.88;;;;;;;17.21;85.26;101909.72;5000215;28;20112;-76
2021/08/23 07:24:13;;;;;;;46.72;29.85;;;;;;;17.40;84.93;101907.66;5006912;28;20023;-76
2021/08/23 07:26:39;;;;;;;47.70;30.55;;;;;;;17.47;84.08;101901.53;4995106;28;20042;-74
2021/08/23 07:29:04;;;;;;;48.30;29.33;;;;;;;17.50;84.05;101911.69;4998964;28;20056;-75
2021/08/23 07:31:30;;;;;;;38.13;24.90;;;;;;;17.52;84.01;101908.91;4992058;28;20041;-74
2021/08/23 07:33:55;;;;;;;42.03;25.63;;;;;;;17.58;83.67;101912.63;4989722;28;20101;-74
2021/08/23 07:36:21;;;;;;;44.05;25.60;;;;;;;17.57;83.59;101911.78;4991633;28;20029;-74
2021/08/23 07:38:46;;;;;;;42.85;25.13;;;;;;;17.49;82.75;101909.25;4989891;28;20100;-74
2021/08/23 07:41:12;;;;;;;37.83;24.05;;;;;;;17.46;82.59;101910.41;4988672;28;20046;-73
2021/08/23 07:43:39;;;;;;;36.42;22.98;;;;;;;17.42;82.64;101909.13;4990754;28;20041;-73
2021/08/23 07:46:05;;;;;;;34.83;21.60;;;;;;;17.50;82.75;101916.13;5004841;28;20039;-74
2021/08/23 07:48:30;;;;;;;33.05;20.10;;;;;;;17.61;82.55;101918.34;5004152;28;20026;-76
2021/08/23 07:50:56;;;;;;;32.33;19.85;;;;;;;17.56;82.56;101915.41;5001641;28;20042;-76
2021/08/23 07:53:21;;;;;;;25.60;16.98;;;;;;;17.59;82.63;101907.19;4984625;28;20473;-76
2021/08/23 07:55:47;;;;;;;27.63;17.42;;;;;;;17.76;81.69;101909.69;4994650;28;20068;-74
2021/08/23 07:58:12;;;;;;;23.02;16.13;;;;;;;17.78;81.71;101918.19;5006707;28;20551;-77
2021/08/23 08:00:38;;;;;;;25.52;15.85;;;;;;;17.88;81.15;101911.75;4990235;28;20094;-75
2021/08/23 08:03:03;;;;;;;25.02;16.02;;;;;;;17.78;81.61;101920.81;4990516;28;20030;-76
2021/08/23 08:05:29;;;;;;;27.92;15.05;;;;;;;17.77;81.50;101921.81;5001988;28;20143;-75
2021/08/23 08:07:54;;;;;;;24.02;15.25;;;;;;;17.78;81.56;101934.78;4999561;28;20065;-77
2021/08/23 08:10:20;;;;;;;23.00;14.80;;;;;;;17.71;81.14;101934.63;4988565;28;20034;-76
2021/08/23 08:12:45;;;;;;;22.63;15.07;;;;;;;17.71;81.09;101937.25;4990631;28;20426;-77
2021/08/23 08:15:11;;;;;;;24.48;14.30;;;;;;;17.77;81.26;101935.75;5001210;28;20451;-76
2021/08/23 08:17:37;;;;;;;22.60;14.30;;;;;;;17.71;81.91;101942.50;5005866;28;20125;-76
2021/08/23 08:20:05;;;;;;;21.50;12.63;;;;;;;17.85;80.85;101940.13;4989611;28;20029;-75
2021/08/23 08:22:30;;;;;;;18.52;13.05;;;;;;;17.96;80.22;101942.34;5005479;28;20045;-75
2021/08/23 08:24:56;;;;;;;18.60;11.70;;;;;;;17.94;79.48;101946.16;5002079;28;20042;-77
2021/08/23 08:27:21;;;;;;;18.35;11.13;;;;;;;17.95;80.08;101955.63;5010363;28;20037;-75
2021/08/23 08:29:48;;;;;;;18.83;10.55;;;;;;;18.01;79.43;101950.50;5007925;28;20041;-76
2021/08/23 08:32:14;;;;;;;17.90;10.57;;;;;;;17.98;79.41;101953.47;4990604;28;20105;-77
2021/08/23 08:34:39;;;;;;;16.77;10.88;;;;;;;18.07;79.19;101960.28;4993009;28;20026;-76
2021/08/23 08:37:05;;;;;;;14.18;10.30;;;;;;;18.17;79.40;101960.03;4993020;28;20093;-76
2021/08/23 08:39:31;;;;;;;17.27;10.90;;;;;;;18.15;79.35;101959.41;4993026;28;20034;-76
2021/08/23 08:41:57;;;;;;;16.67;10.55;;;;;;;18.16;79.65;101968.91;5003481;28;20049;-76
2021/08/23 08:44:22;;;;;;;21.70;12.30;;;;;;;18.24;80.18;101968.03;4988167;28;20516;-75
2021/08/23 08:46:49;;;;;;;18.80;12.10;;;;;;;18.37;79.13;101973.47;4985956;28;20125;-76
2021/08/23 08:49:17;;;;;;;19.60;11.35;;;;;;;18.31;78.77;101973.34;4988573;28;20033;-75
2021/08/23 08:51:45;;;;;;;17.25;10.68;;;;;;;18.28;78.49;101967.47;4981214;28;20038;-76
2021/08/23 08:54:11;;;;;;;17.40;10.45;;;;;;;18.23;78.47;101974.25;4994865;28;20109;-75
2021/08/23 08:56:36;;;;;;;18.13;12.15;;;;;;;18.29;77.67;101977.00;4988531;28;20027;-74
2021/08/23 08:59:05;;;;;;;16.52;11.75;;;;;;;18.28;77.92;101980.59;5003032;28;20030;-76
2021/08/23 09:01:30;;;;;;;16.45;10.85;;;;;;;18.38;77.45;101976.91;5002349;28;20040;-76
2021/08/23 09:04:03;;;;;;;19.83;11.80;;;;;;;18.38;76.93;101982.16;5009959;28;20038;-75
2021/08/23 09:06:39;;;;;;;18.27;11.70;;;;;;;18.43;77.31;101991.13;4998877;28;20129;-76
2021/08/23 09:09:13;;;;;;;17.90;10.40;;;;;;;18.60;76.92;101980.47;4991821;28;20038;-76
2021/08/23 09:11:42;;;;;;;16.27;11.05;;;;;;;18.71;76.28;101981.84;4993509;28;20038;-76
2021/08/23 09:14:09;;;;;;;15.90;11.27;;;;;;;18.63;76.38;101988.00;4995726;28;20098;-76
2021/08/23 09:16:43;;;;;;;15.05;10.65;;;;;;;18.72;75.86;101983.44;5011241;28;20117;-75
2021/08/23 09:19:27;;;;;;;15.25;10.23;;;;;;;18.65;76.21;101989.44;4998298;28;20033;-74
2021/08/23 09:22:16;;;;;;;13.48;10.25;;;;;;;18.67;75.69;101990.06;4992020;28;20100;-76
2021/08/23 09:24:42;;;;;;;18.33;11.38;;;;;;;18.62;74.99;101992.41;4993441;28;20062;-77
2021/08/23 09:27:14;;;;;;;17.08;12.38;;;;;;;18.71;74.97;101993.16;5000111;28;20413;-76
2021/08/23 09:29:56;;;;;;;17.25;11.98;;;;;;;18.83;74.86;101991.72;4994149;28;20034;-77
2021/08/23 09:32:24;;;;;;;17.27;12.13;;;;;;;18.88;74.64;102008.78;5001184;28;20544;-76
2021/08/23 09:34:50;;;;;;;19.92;14.13;;;;;;;18.88;73.31;102008.78;4985113;28;20559;-76
2021/08/23 09:37:24;;;;;;;21.83;15.65;;;;;;;18.89;73.66;102011.19;5000388;28;20042;-76
2021/08/23 09:39:50;;;;;;;25.75;20.92;;;;;;;18.82;72.80;102008.50;4992555;28;20400;-76
2021/08/23 09:42:21;;;;;;;25.58;19.88;;;;;;;19.08;72.87;102009.00;4999417;28;20045;-77
2021/08/23 09:44:46;;;;;;;26.63;19.23;;;;;;;19.30;70.98;102004.63;4986216;28;20046;-76
2021/08/23 09:47:12;;;;;;;24.23;19.20;;;;;;;19.28;71.68;102009.25;5006171;28;20038;-76
2021/08/23 09:49:46;;;;;;;28.05;18.52;;;;;;;19.26;71.29;102014.69;4990766;28;20213;-76
2021/08/23 09:52:16;;;;;;;20.65;16.95;;;;;;;19.24;71.66;102011.44;4985749;28;20048;-76
2021/08/23 09:54:42;;;;;;;20.92;16.30;;;;;;;19.41;70.65;102022.56;5001675;28;20026;-76
2021/08/23 09:57:10;;;;;;;21.48;15.43;;;;;;;19.35;70.71;102018.84;4990821;28;20096;-76
2021/08/23 09:59:39;;;;;;;20.58;15.75;;;;;;;19.43;71.12;102017.94;4985096;28;20117;-76
2021/08/23 10:02:05;;;;;;;19.67;13.25;;;;;;;19.46;70.09;102028.09;5005743;28;20488;-76
2021/08/23 10:04:30;;;;;;;15.40;12.43;;;;;;;19.48;70.55;102028.72;4988609;28;20058;-77
2021/08/23 10:06:56;;;;;;;17.83;13.90;;;;;;;19.49;70.16;102022.44;4982157;28;20400;-76
2021/08/23 10:09:28;;;;;;;16.63;12.48;;;;;;;19.53;70.06;102023.69;5005531;28;20401;-77
2021/08/23 10:11:55;;;;;;;16.58;12.20;;;;;;;19.48;70.67;102028.72;4985689;28;20034;-77
2021/08/23 10:14:21;;;;;;;23.33;11.43;;;;;;;19.57;70.65;102027.59;4999349;28;20542;-77
2021/08/23 10:16:48;;;;;;;15.65;10.75;;;;;;;19.80;69.85;102026.66;4987925;28;20038;-76
2021/08/23 10:19:14;;;;;;;17.23;11.15;;;;;;;19.95;69.56;102027.41;4986427;28;20022;-77
2021/08/23 10:21:42;;;;;;;13.50;9.77;;;;;;;20.12;69.29;102030.59;4997793;28;20053;-76
2021/08/23 10:24:08;;;;;;;13.82;10.13;;;;;;;20.02;69.66;102036.19;4985509;28;20038;-76
2021/08/23 10:26:45;;;;;;;17.83;11.38;;;;;;;19.74;69.32;102028.22;4982278;28;20093;-76
2021/08/23 10:29:14;;;;;;;13.65;9.45;;;;;;;19.55;70.10;102039.28;4987457;28;20034;-76
2021/08/23 10:31:43;;;;;;;13.52;10.07;;;;;;;19.48;69.39;102044.50;4989418;28;20495;-76
2021/08/23 10:34:14;;;;;;;15.23;9.63;;;;;;;19.42;70.38;102037.31;4989047;28;20038;-76
2021/08/23 10:36:41;;;;;;;12.77;9.95;;;;;;;19.45;71.20;102037.78;4990099;28;20038;-76
2021/08/23 10:39:07;;;;;;;14.90;10.07;;;;;;;19.56;70.14;102046.19;5008782;28;20041;-77
2021/08/23 10:41:33;;;;;;;15.65;9.82;;;;;;;19.51;70.51;102040.69;4998062;28;20396;-77
2021/08/23 10:44:01;;;;;;;16.20;9.35;;;;;;;19.67;69.73;102043.09;5003882;28;20052;-76
2021/08/23 10:46:32;;;;;;;13.77;9.15;;;;;;;19.87;69.52;102045.13;4993698;28;20403;-76
2021/08/23 10:49:02;;;;;;;15.88;10.35;;;;;;;20.15;67.30;102043.34;4996706;28;20132;-76
2021/08/23 10:51:36;;;;;;;17.17;10.38;;;;;;;20.17;66.18;102037.91;4990488;28;20042;-77
2021/08/23 10:54:20;;;;;;;14.00;9.73;;;;;;;19.99;66.79;102046.28;5001936;28;20049;-76
2021/08/23 10:56:45;;;;;;;14.80;10.35;;;;;;;19.80;68.06;102047.72;5006741;28;20488;-76
2021/08/23 10:59:19;;;;;;;13.52;8.80;;;;;;;19.87;68.41;102045.94;4992642;28;20034;-76
2021/08/23 11:01:57;;;;;;;12.18;9.05;;;;;;;19.79;67.91;102043.44;4992017;28;20060;-75
2021/08/23 11:04:54;;;;;;;13.35;9.50;;;;;;;19.77;68.37;102054.13;5000238;28;20088;-76
2021/08/23 11:07:28;;;;;;;14.07;10.18;;;;;;;19.88;67.89;102041.50;4982031;28;20057;-76
2021/08/23 11:10:12;;;;;;;15.25;10.02;;;;;;;19.94;68.00;102040.75;4986768;28;20117;-76
2021/08/23 11:12:57;;;;;;;12.02;9.15;;;;;;;20.54;68.33;102047.31;4985320;28;20042;-76